Time;durP1;ratioP1;P1;durP2;ratioP2;P2;SDS_P1;SDS_P2;PMS_P1;PMS_P2;Temp;Humidity;BMP_temperature;BMP_pressure;BME280_temperature;BME280_humidity;BME280_pressure;Samples;Min_cycle;Max_cycle;Signal;HPM_P1;HPM_P2
2021/01/06 00:02:13;;;;;;;;;;;3.70;99.90;;;;;;5073778;28;20464;-71
2021/01/06 00:05:19;;;;;;;;;;;3.70;99.90;;;;;;5073158;28;19931;-70
2021/01/06 00:08:23;;;;;;;;;;;3.60;99.90;;;;;;5060255;28;19915;-71
2021/01/06 00:11:34;;;;;;;;;;;3.60;99.90;;;;;;5072677;28;20014;-70
2021/01/06 00:14:38;;;;;;;;;;;3.50;99.90;;;;;;5072084;28;20378;-69
2021/01/06 00:17:42;;;;;;;;;;;3.50;99.90;;;;;;5073356;28;19915;-71
2021/01/06 00:20:47;;;;;;;;;;;3.50;99.90;;;;;;5072733;28;20386;-70
2021/01/06 00:23:51;;;;;;;;;;;3.40;99.90;;;;;;5060846;28;19974;-71
2021/01/06 00:26:55;;;;;;;;;;;3.40;99.90;;;;;;5072608;28;19915;-72
2021/01/06 00:29:58;;;;;;;;;;;3.40;99.90;;;;;;5072176;28;19931;-71
2021/01/06 00:33:08;;;;;;;;;;;3.40;99.90;;;;;;5072899;28;19923;-71
2021/01/06 00:36:19;;;;;;;;;;;3.50;99.90;;;;;;5064290;28;19915;-71
2021/01/06 00:39:23;;;;;;;;;;;3.50;99.90;;;;;;5071896;28;19935;-71
2021/01/06 00:42:28;;;;;;;;;;;3.40;99.90;;;;;;5054095;28;19919;-71
2021/01/06 00:45:34;;;;;;;;;;;3.40;99.90;;;;;;5069334;28;19916;-70
2021/01/06 00:48:40;;;;;;;;;;;3.40;99.90;;;;;;5066708;28;20378;-71
2021/01/06 00:51:46;;;;;;;;;;;3.40;99.90;;;;;;5081954;28;20386;-70
2021/01/06 00:54:50;;;;;;;;;;;3.40;99.90;;;;;;5071971;28;20278;-71
2021/01/06 00:57:55;;;;;;;;;;;3.40;99.90;;;;;;5056926;28;19963;-70
2021/01/06 01:01:00;;;;;;;;;;;3.40;99.90;;;;;;5069874;28;20510;-71
2021/01/06 01:04:14;;;;;;;;;;;3.50;99.90;;;;;;5081847;28;20272;-70
2021/01/06 01:07:19;;;;;;;;;;;3.50;99.90;;;;;;5071463;28;19920;-70
2021/01/06 01:10:29;;;;;;;;;;;3.40;99.90;;;;;;5070811;28;19931;-70
2021/01/06 01:13:33;;;;;;;;;;;3.40;99.90;;;;;;5070123;28;19931;-71
2021/01/06 01:16:42;;;;;;;;;;;3.40;99.90;;;;;;5058802;28;19915;-71
2021/01/06 01:19:46;;;;;;;;;;;3.40;99.90;;;;;;5070609;28;19923;-70
2021/01/06 01:22:50;;;;;;;;;;;3.50;99.90;;;;;;5070341;28;19920;-71
2021/01/06 01:25:56;;;;;;;;;;;3.50;99.90;;;;;;5071268;28;20295;-72
2021/01/06 01:29:00;;;;;;;;;;;3.60;99.90;;;;;;5061550;28;19916;-71
2021/01/06 01:32:04;;;;;;;;;;;3.60;99.90;;;;;;5058401;28;19919;-70
2021/01/06 01:35:09;;;;;;;;;;;3.70;99.90;;;;;;5062676;28;19957;-69
2021/01/06 01:38:20;;;;;;;;;;;3.70;99.90;;;;;;5062983;28;19915;-71
2021/01/06 01:41:26;;;;;;;;;;;3.70;99.90;;;;;;5067785;28;19919;-71
2021/01/06 01:44:30;;;;;;;;;;;3.70;99.90;;;;;;5063112;28;19935;-71
2021/01/06 01:47:39;;;;;;;;;;;3.70;99.90;;;;;;5067469;28;19923;-71
2021/01/06 01:50:44;;;;;;;;;;;3.70;99.90;;;;;;5070252;28;19923;-70
2021/01/06 01:53:50;;;;;;;;;;;3.60;99.90;;;;;;5070719;28;20370;-71
2021/01/06 01:56:53;;;;;;;;;;;3.50;99.90;;;;;;5071162;28;20279;-70
2021/01/06 01:59:58;;;;;;;;;;;3.50;99.90;;;;;;5056993;28;19920;-71
2021/01/06 02:03:05;;;;;;;;;;;3.60;99.90;;;;;;5070948;28;19915;-71
2021/01/06 02:06:09;;;;;;;;;;;3.60;99.90;;;;;;5070833;28;19924;-71
2021/01/06 02:09:18;;;;;;;;;;;3.60;99.90;;;;;;5070910;28;19920;-70
2021/01/06 02:12:25;;;;;;;;;;;3.50;99.90;;;;;;5059978;28;19923;-71
2021/01/06 02:15:33;;;;;;;;;;;3.40;99.90;;;;;;5058988;28;19934;-71
2021/01/06 02:18:37;;;;;;;;;;;3.30;99.90;;;;;;5060968;28;20358;-71
2021/01/06 02:21:41;;;;;;;;;;;3.20;99.90;;;;;;5073860;28;19951;-71
2021/01/06 02:24:47;;;;;;;;;;;3.10;99.90;;;;;;5074529;28;19916;-71
2021/01/06 02:27:51;;;;;;;;;;;3.10;99.90;;;;;;5073855;28;19919;-72
2021/01/06 02:30:55;;;;;;;;;;;3.20;99.90;;;;;;5074246;28;19931;-72
2021/01/06 02:33:59;;;;;;;;;;;3.30;99.90;;;;;;5060972;28;19924;-72
2021/01/06 02:37:04;;;;;;;;;;;3.40;99.90;;;;;;5074602;28;19915;-72
2021/01/06 02:40:10;;;;;;;;;;;3.40;99.90;;;;;;5073432;28;19943;-72
2021/01/06 02:43:16;;;;;;;;;;;3.40;99.90;;;;;;5073439;28;19916;-72
2021/01/06 02:46:20;;;;;;;;;;;3.40;99.90;;;;;;5055460;28;19919;-72
2021/01/06 02:49:25;;;;;;;;;;;3.40;99.90;;;;;;5061018;28;19916;-72
2021/01/06 02:52:35;;;;;;;;;;;3.40;99.90;;;;;;5074100;28;20370;-72
2021/01/06 02:55:40;;;;;;;;;;;3.40;99.90;;;;;;5074005;28;19919;-72
2021/01/06 02:58:45;;;;;;;;;;;3.40;99.90;;;;;;5072655;28;20386;-72
2021/01/06 03:01:51;;;;;;;;;;;3.40;99.90;;;;;;5064237;28;19915;-72
2021/01/06 03:05:06;;;;;;;;;;;3.40;99.90;;;;;;5061982;28;19915;-72
2021/01/06 03:08:12;;;;;;;;;;;3.40;99.90;;;;;;5061136;28;19915;-72
2021/01/06 03:11:16;;;;;;;;;;;3.30;99.90;;;;;;5073198;28;19919;-73
2021/01/06 03:14:21;;;;;;;;;;;3.10;99.90;;;;;;5072602;28;19931;-71
2021/01/06 03:17:26;;;;;;;;;;;3.10;99.90;;;;;;5084682;28;19915;-72
2021/01/06 03:20:32;;;;;;;;;;;3.00;99.90;;;;;;5073900;28;19924;-72
2021/01/06 03:23:39;;;;;;;;;;;3.10;99.90;;;;;;5061531;28;20270;-72
2021/01/06 03:26:45;;;;;;;;;;;3.10;99.90;;;;;;5073716;28;19935;-71
2021/01/06 03:29:50;;;;;;;;;;;3.10;99.90;;;;;;5072195;28;20389;-72
2021/01/06 03:32:54;;;;;;;;;;;3.10;99.90;;;;;;5073638;28;19919;-71
2021/01/06 03:36:04;;;;;;;;;;;3.10;99.90;;;;;;5073564;28;19920;-72
2021/01/06 03:39:12;;;;;;;;;;;3.10;99.90;;;;;;5073645;28;19934;-70
2021/01/06 03:42:17;;;;;;;;;;;3.10;99.90;;;;;;5060220;28;19915;-71
2021/01/06 03:45:24;;;;;;;;;;;3.00;99.90;;;;;;5071292;28;20374;-72
2021/01/06 03:48:46;;;;;;;;;;;3.00;99.90;;;;;;5066133;28;19916;-72
2021/01/06 03:51:56;;;;;;;;;;;3.00;99.90;;;;;;5064748;28;19915;-70
2021/01/06 03:55:04;;;;;;;;;;;3.10;99.90;;;;;;5072147;28;19920;-72
2021/01/06 03:58:16;;;;;;;;;;;3.10;99.90;;;;;;5060248;28;20483;-72
2021/01/06 04:01:31;;;;;;;;;;;3.20;99.90;;;;;;5059089;28;19919;-71
2021/01/06 04:04:35;;;;;;;;;;;3.20;99.90;;;;;;5083328;28;20389;-72
2021/01/06 04:07:43;;;;;;;;;;;3.20;99.90;;;;;;5070042;28;19923;-71
2021/01/06 04:10:54;;;;;;;;;;;3.20;99.90;;;;;;5065531;28;19919;-71
2021/01/06 04:13:58;;;;;;;;;;;3.20;99.90;;;;;;5071442;28;19919;-71
2021/01/06 04:17:13;;;;;;;;;;;3.20;99.90;;;;;;5072317;28;19915;-72
2021/01/06 04:20:20;;;;;;;;;;;3.10;99.90;;;;;;5071430;28;20358;-72
2021/01/06 04:23:24;;;;;;;;;;;3.00;99.90;;;;;;5058495;28;20303;-71
2021/01/06 04:26:28;;;;;;;;;;;3.00;99.90;;;;;;5072396;28;19915;-71
2021/01/06 04:29:32;;;;;;;;;;;3.00;99.90;;;;;;5071444;28;19915;-71
2021/01/06 04:32:36;;;;;;;;;;;3.00;99.90;;;;;;5072093;28;19939;-71
2021/01/06 04:35:40;;;;;;;;;;;3.00;99.90;;;;;;5071886;28;19915;-71
2021/01/06 04:38:47;;;;;;;;;;;3.10;99.90;;;;;;5057634;28;19915;-71
2021/01/06 04:41:56;;;;;;;;;;;3.10;99.90;;;;;;5071577;28;19920;-71
2021/01/06 04:45:20;;;;;;;;;;;3.10;99.90;;;;;;5071837;28;19919;-71
2021/01/06 04:48:27;;;;;;;;;;;3.20;99.90;;;;;;5072191;28;19915;-71
2021/01/06 04:51:31;;;;;;;;;;;3.20;99.90;;;;;;5061448;28;19927;-71
2021/01/06 04:54:44;;;;;;;;;;;3.20;99.90;;;;;;5059282;28;20274;-71
2021/01/06 04:58:07;;;;;;;;;;;3.20;99.90;;;;;;5081419;28;20374;-71
2021/01/06 05:01:24;;;;;;;;;;;3.30;99.90;;;;;;5070809;28;20385;-70
2021/01/06 05:04:47;;;;;;;;;;;3.20;99.90;;;;;;5071792;28;19916;-72
2021/01/06 05:08:10;;;;;;;;;;;3.10;99.90;;;;;;5071765;28;19916;-71
2021/01/06 05:11:20;;;;;;;;;;;3.10;99.90;;;;;;5071263;28;19931;-71
2021/01/06 05:14:28;;;;;;;;;;;3.10;99.90;;;;;;5070217;28;19915;-70
2021/01/06 05:17:32;;;;;;;;;;;3.00;99.90;;;;;;5071489;28;19919;-71
2021/01/06 05:20:36;;;;;;;;;;;3.00;99.90;;;;;;5069929;28;20402;-71
2021/01/06 05:23:41;;;;;;;;;;;2.90;99.90;;;;;;5059305;28;19916;-71
2021/01/06 05:26:48;;;;;;;;;;;2.90;99.90;;;;;;5071135;28;20275;-71
2021/01/06 05:29:54;;;;;;;;;;;2.80;99.90;;;;;;5070123;28;19916;-71
2021/01/06 05:33:00;;;;;;;;;;;2.80;99.90;;;;;;5071359;28;19936;-71
2021/01/06 05:36:04;;;;;;;;;;;2.90;99.90;;;;;;5070887;28;19916;-71
2021/01/06 05:39:28;;;;;;;;;;;2.90;99.90;;;;;;5071305;28;19919;-71
2021/01/06 05:42:39;;;;;;;;;;;2.90;99.90;;;;;;5060503;28;19915;-71
2021/01/06 05:45:47;;;;;;;;;;;2.90;99.90;;;;;;5055496;28;20378;-71
2021/01/06 05:48:55;;;;;;;;;;;2.90;99.90;;;;;;5066966;28;19919;-71
2021/01/06 05:52:01;;;;;;;;;;;3.00;99.90;;;;;;5069466;28;19915;-71
2021/01/06 05:55:09;;;;;;;;;;;2.80;99.90;;;;;;5071283;28;19915;-71
2021/01/06 05:58:19;;;;;;;;;;;2.80;99.90;;;;;;5069370;28;19915;-72
2021/01/06 06:01:39;;;;;;;;;;;2.80;99.90;;;;;;5057172;28;20405;-71
2021/01/06 06:05:11;;;;;;;;;;;2.80;99.90;;;;;;5063170;28;19919;-71
2021/01/06 06:08:25;;;;;;;;;;;2.80;99.90;;;;;;5057729;28;19915;-71
2021/01/06 06:11:32;;;;;;;;;;;2.80;99.90;;;;;;5056483;28;19920;-71
2021/01/06 06:14:50;;;;;;;;;;;2.80;99.90;;;;;;5070054;28;19935;-71
2021/01/06 06:18:24;;;;;;;;;;;2.90;99.90;;;;;;5070025;28;20271;-71
2021/01/06 06:21:28;;;;;;;;;;;3.00;99.90;;;;;;5070162;28;19978;-71
2021/01/06 06:24:32;;;;;;;;;;;2.90;99.90;;;;;;5070758;28;20291;-71
2021/01/06 06:27:59;;;;;;;;;;;2.80;99.90;;;;;;5066414;28;19954;-71
2021/01/06 06:31:22;;;;;;;;;;;2.90;99.90;;;;;;5067916;28;19923;-71
2021/01/06 06:34:26;;;;;;;;;;;2.90;99.90;;;;;;5070588;28;19923;-70
2021/01/06 06:37:31;;;;;;;;;;;3.00;99.90;;;;;;5069297;28;19915;-71
2021/01/06 06:40:49;;;;;;;;;;;3.00;99.90;;;;;;5064980;28;19923;-71
2021/01/06 06:44:13;;;;;;;;;;;3.10;99.90;;;;;;5058609;28;19920;-71
2021/01/06 06:47:20;;;;;;;;;;;3.20;99.90;;;;;;5067851;28;19919;-72
2021/01/06 06:50:44;;;;;;;;;;;3.30;99.90;;;;;;5062523;28;19915;-71
2021/01/06 06:53:55;;;;;;;;;;;3.20;99.90;;;;;;5070178;28;19932;-71
2021/01/06 06:57:23;;;;;;;;;;;3.20;99.90;;;;;;5061108;28;19943;-70
2021/01/06 07:00:29;;;;;;;;;;;3.10;99.90;;;;;;5060651;28;19939;-71
2021/01/06 07:03:35;;;;;;;;;;;3.10;99.90;;;;;;5063337;28;19915;-71
2021/01/06 07:06:40;;;;;;;;;;;3.10;99.90;;;;;;5057300;28;20507;-71
2021/01/06 07:09:49;;;;;;;;;;;3.10;99.90;;;;;;5059428;28;19916;-72
2021/01/06 07:12:55;;;;;;;;;;;3.00;99.90;;;;;;5056551;28;19920;-72
2021/01/06 07:16:19;;;;;;;;;;;2.90;99.90;;;;;;5065502;28;20262;-72
2021/01/06 07:19:29;;;;;;;;;;;2.80;99.90;;;;;;5065014;28;19916;-72
2021/01/06 07:22:37;;;;;;;;;;;2.70;99.90;;;;;;5055673;28;20418;-72
2021/01/06 07:25:45;;;;;;;;;;;2.70;99.90;;;;;;5067678;28;20030;-71
2021/01/06 07:28:56;;;;;;;;;;;2.70;99.90;;;;;;5059771;28;19923;-71
2021/01/06 07:32:09;;;;;;;;;;;2.70;99.90;;;;;;5062537;28;19919;-71
2021/01/06 07:35:21;;;;;;;;;;;2.80;99.90;;;;;;5061286;28;19924;-71
2021/01/06 07:38:32;;;;;;;;;;;3.00;99.90;;;;;;5055760;28;19931;-72
2021/01/06 07:41:42;;;;;;;;;;;3.30;99.90;;;;;;5060012;28;19919;-71
2021/01/06 07:44:45;;;;;;;;;;;3.40;99.90;;;;;;5062310;28;19935;-71
2021/01/06 07:47:56;;;;;;;;;;;3.40;99.90;;;;;;5064389;28;20418;-71
2021/01/06 07:51:00;;;;;;;;;;;3.50;99.90;;;;;;5064553;28;19920;-71
2021/01/06 07:54:04;;;;;;;;;;;3.60;99.90;;;;;;5060776;28;19966;-71
2021/01/06 07:57:12;;;;;;;;;;;3.60;99.90;;;;;;5063563;28;19915;-69
2021/01/06 08:00:24;;;;;;;;;;;3.40;99.90;;;;;;5062519;28;19919;-72
2021/01/06 08:03:48;;;;;;;;;;;3.40;99.90;;;;;;5060671;28;19952;-71
2021/01/06 08:06:53;;;;;;;;;;;3.30;99.90;;;;;;5056837;28;19966;-71
2021/01/06 08:09:57;;;;;;;;;;;3.40;99.90;;;;;;5064595;28;19919;-71
2021/01/06 08:13:09;;;;;;;;;;;3.50;99.90;;;;;;5064963;28;19920;-71
2021/01/06 08:16:23;;;;;;;;;;;3.50;99.90;;;;;;5059498;28;19915;-71
2021/01/06 08:19:34;;;;;;;;;;;3.60;99.90;;;;;;5059343;28;20283;-71
2021/01/06 08:22:48;;;;;;;;;;;3.80;99.90;;;;;;5056547;28;19947;-72
2021/01/06 08:26:11;;;;;;;;;;;4.00;99.90;;;;;;5052738;28;19920;-70
2021/01/06 08:29:26;;;;;;;;;;;4.60;99.90;;;;;;5054586;28;20287;-72
2021/01/06 08:32:30;;;;;;;;;;;6.10;99.90;;;;;;5067636;28;19923;-71
2021/01/06 08:35:42;;;;;;;;;;;10.40;99.90;;;;;;5057366;28;20374;-71
2021/01/06 08:38:46;;;;;;;;;;;14.30;99.90;;;;;;5056727;28;19935;-72
2021/01/06 08:41:50;;;;;;;;;;;18.00;99.90;;;;;;5064568;28;19919;-71
2021/01/06 08:44:56;;;;;;;;;;;19.70;99.90;;;;;;5063976;28;19927;-71
2021/01/06 08:48:20;;;;;;;;;;;20.10;95.60;;;;;;5068860;28;19915;-71
2021/01/06 08:51:31;;;;;;;;;;;18.20;96.00;;;;;;5062879;28;19915;-71
2021/01/06 08:54:35;;;;;;;;;;;15.40;99.90;;;;;;5060953;28;19935;-70
2021/01/06 08:57:39;;;;;;;;;;;13.00;99.90;;;;;;5068960;28;19912;-70
2021/01/06 09:00:56;;;;;;;;;;;11.10;99.90;;;;;;5070024;28;19941;-70
2021/01/06 09:04:07;;;;;;;;;;;9.60;99.90;;;;;;5070686;28;20014;-70
2021/01/06 09:07:14;;;;;;;;;;;8.50;99.90;;;;;;5070289;28;19931;-70
2021/01/06 09:10:35;;;;;;;;;;;7.30;99.90;;;;;;5063641;28;19912;-71
2021/01/06 09:13:55;;;;;;;;;;;6.40;99.90;;;;;;5055548;28;19924;-70
2021/01/06 09:17:04;;;;;;;;;;;5.70;99.90;;;;;;5062865;28;19931;-72
2021/01/06 09:20:28;;;;;;;;;;;4.90;99.90;;;;;;5062027;28;19939;-73
2021/01/06 09:23:32;;;;;;;;;;;4.30;99.90;;;;;;5063620;28;19919;-73
2021/01/06 09:26:38;;;;;;;;;;;3.90;99.90;;;;;;5061230;28;19915;-73
2021/01/06 09:29:42;;;;;;;;;;;3.60;99.90;;;;;;5065740;28;19915;-74
2021/01/06 09:32:47;;;;;;;;;;;3.40;99.90;;;;;;5066385;28;20255;-75
2021/01/06 09:35:53;;;;;;;;;;;3.30;99.90;;;;;;5060177;28;19928;-76
2021/01/06 09:38:58;;;;;;;;;;;3.10;99.90;;;;;;5061571;28;19916;-76
2021/01/06 09:42:03;;;;;;;;;;;2.90;99.90;;;;;;5060830;28;19920;-76
2021/01/06 09:45:14;;;;;;;;;;;2.90;99.90;;;;;;5060230;28;19927;-76
2021/01/06 09:48:19;;;;;;;;;;;2.80;99.90;;;;;;5065424;28;19924;-75
2021/01/06 09:51:23;;;;;;;;;;;2.80;99.90;;;;;;5057920;28;19920;-75
2021/01/06 09:54:28;;;;;;;;;;;2.80;99.90;;;;;;5059050;28;19931;-75
2021/01/06 09:57:32;;;;;;;;;;;2.70;99.90;;;;;;5062004;28;20390;-77
2021/01/06 10:00:54;;;;;;;;;;;2.70;99.90;;;;;;5064457;28;19923;-75
2021/01/06 10:04:13;;;;;;;;;;;2.70;99.90;;;;;;5061417;28;19923;-74
2021/01/06 10:07:31;;;;;;;;;;;2.70;99.90;;;;;;5063086;28;19932;-75
2021/01/06 10:10:50;;;;;;;;;;;2.70;99.90;;;;;;5062116;28;20354;-74
2021/01/06 10:14:09;;;;;;;;;;;2.60;99.90;;;;;;5061849;28;19915;-73
2021/01/06 10:17:19;;;;;;;;;;;2.60;99.90;;;;;;5061744;28;19916;-73
2021/01/06 10:20:29;;;;;;;;;;;2.60;99.90;;;;;;5059614;28;19991;-74
2021/01/06 10:23:50;;;;;;;;;;;2.70;99.90;;;;;;5062395;28;19923;-72
2021/01/06 10:27:02;;;;;;;;;;;3.00;99.90;;;;;;5063072;28;19920;-73
2021/01/06 10:30:20;;;;;;;;;;;4.00;99.90;;;;;;5055717;28;20251;-73
2021/01/06 10:33:24;;;;;;;;;;;4.60;99.90;;;;;;5066728;28;19923;-72
2021/01/06 10:36:31;;;;;;;;;;;4.80;99.90;;;;;;5064590;28;19931;-72
2021/01/06 10:39:40;;;;;;;;;;;4.70;99.90;;;;;;5069140;28;19943;-71
2021/01/06 10:42:47;;;;;;;;;;;4.70;99.90;;;;;;5066226;28;19920;-71
2021/01/06 10:45:52;;;;;;;;;;;5.20;99.90;;;;;;5062470;28;19915;-72
2021/01/06 10:48:56;;;;;;;;;;;6.90;99.90;;;;;;5066790;28;19915;-72
2021/01/06 10:52:15;;;;;;;;;;;9.70;99.90;;;;;;5061409;28;20289;-72
2021/01/06 10:55:32;;;;;;;;;;;12.80;99.90;;;;;;5065328;28;19919;-71
2021/01/06 10:58:51;;;;;;;;;;;16.50;99.90;;;;;;5060731;28;19939;-72
2021/01/06 11:02:16;;;;;;;;;;;19.30;98.10;;;;;;5053634;28;19923;-72
2021/01/06 11:05:32;;;;;;;;;;;19.90;93.50;;;;;;5072527;28;19916;-72
2021/01/06 11:08:49;;;;;;;;;;;18.20;92.50;;;;;;5062440;28;19924;-71
2021/01/06 11:12:09;;;;;;;;;;;15.80;92.60;;;;;;5071418;28;19920;-71
2021/01/06 11:15:25;;;;;;;;;;;15.40;93.50;;;;;;5057769;28;19916;-71
2021/01/06 11:18:36;;;;;;;;;;;16.50;94.30;;;;;;5056527;28;19913;-70
2021/01/06 11:22:00;;;;;;;;;;;15.30;97.50;;;;;;5064416;28;19939;-71
2021/01/06 11:25:06;;;;;;;;;;;14.90;98.40;;;;;;5061109;28;19915;-72
2021/01/06 11:28:19;;;;;;;;;;;14.10;97.80;;;;;;5058937;28;19916;-71
2021/01/06 11:31:28;;;;;;;;;;;11.60;99.90;;;;;;5054837;28;19949;-71
2021/01/06 11:34:36;;;;;;;;;;;9.50;99.90;;;;;;5073006;28;19920;-71
2021/01/06 11:37:42;;;;;;;;;;;9.30;99.90;;;;;;5069662;28;19920;-71
2021/01/06 11:40:47;;;;;;;;;;;9.00;99.90;;;;;;5062121;28;19923;-70
2021/01/06 11:44:06;;;;;;;;;;;8.40;99.90;;;;;;5061285;28;20294;-71
2021/01/06 11:47:13;;;;;;;;;;;7.80;99.90;;;;;;5065005;28;19919;-72
2021/01/06 11:50:24;;;;;;;;;;;7.40;99.90;;;;;;5060753;28;19920;-71
2021/01/06 11:53:29;;;;;;;;;;;6.90;99.90;;;;;;5069500;28;20530;-71
2021/01/06 11:56:40;;;;;;;;;;;6.40;99.90;;;;;;5066766;28;20283;-71
2021/01/06 11:59:48;;;;;;;;;;;5.90;99.90;;;;;;5063459;28;20433;-71
2021/01/06 12:02:59;;;;;;;;;;;5.40;99.90;;;;;;5070208;28;20387;-72
2021/01/06 12:06:09;;;;;;;;;;;5.10;99.90;;;;;;5071323;28;20603;-71
2021/01/06 12:09:23;;;;;;;;;;;4.90;99.90;;;;;;5062319;28;19931;-71
2021/01/06 12:12:27;;;;;;;;;;;4.70;99.90;;;;;;5062379;28;19932;-71
2021/01/06 12:15:46;;;;;;;;;;;4.50;99.90;;;;;;5052922;28;19916;-72
2021/01/06 12:18:57;;;;;;;;;;;4.30;99.90;;;;;;5061810;28;19939;-72
2021/01/06 12:22:01;;;;;;;;;;;4.20;99.90;;;;;;5070038;28;20361;-72
2021/01/06 12:25:25;;;;;;;;;;;4.00;99.90;;;;;;5060431;28;19915;-72
2021/01/06 12:28:33;;;;;;;;;;;4.20;99.90;;;;;;5061932;28;19916;-71
2021/01/06 12:32:15;;;;;;;;;;;4.80;99.90;;;;;;5056881;28;19920;-73
2021/01/06 12:35:19;;;;;;;;;;;5.20;99.90;;;;;;5035467;28;19927;-71
2021/01/06 12:38:26;;;;;;;;;;;5.60;99.90;;;;;;5040009;28;19920;-70
2021/01/06 12:41:45;;;;;;;;;;;5.90;99.90;;;;;;5057290;28;19923;-70
2021/01/06 12:45:00;;;;;;;;;;;5.90;99.90;;;;;;5059139;28;19919;-71
2021/01/06 12:48:06;;;;;;;;;;;5.80;99.90;;;;;;5061788;28;19931;-68
2021/01/06 12:51:22;;;;;;;;;;;5.60;99.90;;;;;;5058426;28;19915;-69
2021/01/06 12:54:36;;;;;;;;;;;5.50;99.90;;;;;;5064393;28;19916;-70
2021/01/06 12:57:45;;;;;;;;;;;5.50;99.90;;;;;;5057396;28;19935;-71
2021/01/06 13:01:02;;;;;;;;;;;5.30;99.90;;;;;;5059382;28;19923;-70
2021/01/06 13:04:08;;;;;;;;;;;5.20;99.90;;;;;;5061458;28;19916;-70
2021/01/06 13:07:12;;;;;;;;;;;5.10;99.90;;;;;;5063340;28;19923;-70
2021/01/06 13:10:17;;;;;;;;;;;5.10;99.90;;;;;;5068239;28;20258;-71
2021/01/06 13:13:26;;;;;;;;;;;5.40;99.90;;;;;;5060522;28;20411;-70
2021/01/06 13:16:36;;;;;;;;;;;5.70;99.90;;;;;;5060179;28;19915;-70
2021/01/06 13:20:02;;;;;;;;;;;6.00;99.90;;;;;;5060299;28;19927;-70
2021/01/06 13:23:17;;;;;;;;;;;6.30;99.90;;;;;;5060051;28;19935;-70
2021/01/06 13:26:22;;;;;;;;;;;6.60;99.90;;;;;;5059458;28;19924;-70
2021/01/06 13:29:38;;;;;;;;;;;6.60;99.90;;;;;;5056147;28;19919;-70
2021/01/06 13:32:52;;;;;;;;;;;6.50;99.90;;;;;;5062159;28;19920;-70
2021/01/06 13:35:57;;;;;;;;;;;6.30;99.90;;;;;;5062364;28;19915;-70
2021/01/06 13:39:07;;;;;;;;;;;5.80;99.90;;;;;;5062862;28;20266;-70
2021/01/06 13:42:31;;;;;;;;;;;5.10;99.90;;;;;;5064246;28;20369;-70
2021/01/06 13:45:36;;;;;;;;;;;5.00;99.90;;;;;;5068676;28;19919;-71
2021/01/06 13:48:40;;;;;;;;;;;5.30;99.90;;;;;;5056866;28;20378;-70
2021/01/06 13:51:52;;;;;;;;;;;6.20;99.90;;;;;;5054185;28;19915;-70
2021/01/06 13:55:02;;;;;;;;;;;6.90;99.90;;;;;;5055807;28;19919;-70
2021/01/06 13:58:10;;;;;;;;;;;7.70;99.90;;;;;;5056044;28;19916;-70
2021/01/06 14:01:21;;;;;;;;;;;8.00;99.90;;;;;;5060451;28;19927;-70
2021/01/06 14:04:26;;;;;;;;;;;8.90;99.90;;;;;;5059962;28;19915;-70
2021/01/06 14:07:30;;;;;;;;;;;9.80;99.90;;;;;;5064514;28;19920;-71
2021/01/06 14:14:15;;;;;;;;;;;11.90;99.90;;;;;;5063591;28;19919;-70
2021/01/06 14:17:37;;;;;;;;;;;11.80;99.90;;;;;;5070309;28;19916;-71
2021/01/06 14:20:41;;;;;;;;;;;10.30;99.90;;;;;;5060047;28;19920;-70
2021/01/06 14:23:53;;;;;;;;;;;7.30;99.90;;;;;;5063458;28;20520;-70
2021/01/06 14:27:16;;;;;;;;;;;6.10;99.90;;;;;;5058750;28;19916;-70
2021/01/06 14:30:32;;;;;;;;;;;5.50;99.90;;;;;;5060497;28;19931;-70
2021/01/06 14:33:46;;;;;;;;;;;5.30;99.90;;;;;;5061836;28;19920;-69
2021/01/06 14:36:59;;;;;;;;;;;5.10;99.90;;;;;;5070052;28;20319;-70
2021/01/06 14:40:18;;;;;;;;;;;5.00;99.90;;;;;;5066169;28;19935;-70
2021/01/06 14:43:26;;;;;;;;;;;4.70;99.90;;;;;;5065809;28;19922;-70
2021/01/06 14:46:30;;;;;;;;;;;4.60;99.90;;;;;;5069153;28;19983;-69
2021/01/06 14:49:37;;;;;;;;;;;4.50;99.90;;;;;;5078926;28;19923;-71
2021/01/06 14:52:59;;;;;;;;;;;4.40;99.90;;;;;;5067584;28;19919;-71
2021/01/06 14:56:15;;;;;;;;;;;4.30;99.90;;;;;;5066424;28;19915;-71
2021/01/06 14:59:24;;;;;;;;;;;4.20;99.90;;;;;;5062958;28;19923;-72
2021/01/06 15:02:32;;;;;;;;;;;4.10;99.90;;;;;;5067054;28;19924;-70
2021/01/06 15:05:40;;;;;;;;;;;4.20;99.90;;;;;;5066615;28;20240;-71
2021/01/06 15:08:56;;;;;;;;;;;4.20;99.90;;;;;;5067216;28;19919;-72
2021/01/06 15:12:24;;;;;;;;;;;4.20;99.90;;;;;;5067222;28;19915;-71
2021/01/06 15:15:37;;;;;;;;;;;4.00;99.90;;;;;;5060192;28;19916;-71
2021/01/06 15:18:58;;;;;;;;;;;4.00;99.90;;;;;;5064355;28;19924;-71
2021/01/06 15:22:12;;;;;;;;;;;3.90;99.90;;;;;;5071227;28;19931;-71
2021/01/06 15:25:17;;;;;;;;;;;3.90;99.90;;;;;;5069432;28;19923;-71
2021/01/06 15:28:41;;;;;;;;;;;3.90;99.90;;;;;;5064973;28;19924;-72
2021/01/06 15:31:46;;;;;;;;;;;3.80;99.90;;;;;;5068626;28;19923;-72
2021/01/06 15:34:50;;;;;;;;;;;3.80;99.90;;;;;;5072144;28;20436;-72
2021/01/06 15:37:59;;;;;;;;;;;3.80;99.90;;;;;;5065290;28;19915;-71
2021/01/06 15:41:05;;;;;;;;;;;3.70;99.90;;;;;;5061987;28;19922;-73
2021/01/06 15:44:14;;;;;;;;;;;3.70;99.90;;;;;;5071071;28;19919;-72
2021/01/06 15:47:20;;;;;;;;;;;3.60;99.90;;;;;;5058642;28;19923;-72
2021/01/06 15:50:26;;;;;;;;;;;3.60;99.90;;;;;;5072050;28;19919;-72
2021/01/06 15:53:37;;;;;;;;;;;3.60;99.90;;;;;;5072266;28;19979;-71
2021/01/06 15:56:45;;;;;;;;;;;3.60;99.90;;;;;;5072643;28;20589;-72
2021/01/06 15:59:56;;;;;;;;;;;3.60;99.90;;;;;;5059676;28;20291;-70
2021/01/06 16:03:00;;;;;;;;;;;3.70;99.90;;;;;;5058877;28;20085;-72
2021/01/06 16:06:05;;;;;;;;;;;3.60;99.90;;;;;;5069992;28;19931;-71
2021/01/06 16:09:11;;;;;;;;;;;3.50;99.90;;;;;;5072146;28;19924;-72
2021/01/06 16:12:18;;;;;;;;;;;3.50;99.90;;;;;;5072004;28;19919;-72
2021/01/06 16:15:30;;;;;;;;;;;3.40;99.90;;;;;;5062780;28;19915;-72
2021/01/06 16:18:43;;;;;;;;;;;3.40;99.90;;;;;;5060959;28;19945;-72
2021/01/06 16:21:47;;;;;;;;;;;3.60;99.90;;;;;;5058695;28;19920;-71
2021/01/06 16:24:51;;;;;;;;;;;3.60;99.90;;;;;;5071643;28;19915;-72
2021/01/06 16:28:03;;;;;;;;;;;3.50;99.90;;;;;;5070906;28;19919;-72
2021/01/06 16:31:21;;;;;;;;;;;3.40;99.90;;;;;;5071507;28;19916;-72
2021/01/06 16:34:26;;;;;;;;;;;3.40;99.90;;;;;;5064862;28;19923;-72
2021/01/06 16:37:31;;;;;;;;;;;3.40;99.90;;;;;;5071445;28;19919;-71
2021/01/06 16:40:35;;;;;;;;;;;3.40;99.90;;;;;;5059547;28;19915;-72
2021/01/06 16:43:39;;;;;;;;;;;3.40;99.90;;;;;;5070428;28;20378;-71
2021/01/06 16:46:43;;;;;;;;;;;3.40;99.90;;;;;;5059302;28;19919;-71
2021/01/06 16:50:08;;;;;;;;;;;3.30;99.90;;;;;;5060887;28;19931;-72
2021/01/06 16:53:15;;;;;;;;;;;3.30;99.90;;;;;;5072120;28;20282;-71
2021/01/06 16:56:23;;;;;;;;;;;3.40;99.90;;;;;;5059203;28;19955;-71
2021/01/06 16:59:28;;;;;;;;;;;3.30;99.90;;;;;;5071412;28;19931;-71
2021/01/06 17:02:33;;;;;;;;;;;3.40;99.90;;;;;;5071620;28;19923;-71
2021/01/06 17:05:36;;;;;;;;;;;3.40;99.90;;;;;;5082456;28;19915;-71
2021/01/06 17:08:41;;;;;;;;;;;3.50;99.90;;;;;;5071768;28;20382;-71
2021/01/06 17:11:52;;;;;;;;;;;3.50;99.90;;;;;;5059914;28;20045;-71
2021/01/06 17:14:57;;;;;;;;;;;3.50;99.90;;;;;;5057891;28;19939;-71
2021/01/06 17:18:06;;;;;;;;;;;3.30;99.90;;;;;;5071599;28;19919;-72
2021/01/06 17:21:21;;;;;;;;;;;3.30;99.90;;;;;;5070336;28;20275;-71
2021/01/06 17:24:31;;;;;;;;;;;3.20;99.90;;;;;;5071239;28;19932;-72
2021/01/06 17:27:37;;;;;;;;;;;3.10;99.90;;;;;;5063332;28;19920;-71
2021/01/06 17:30:42;;;;;;;;;;;3.00;99.90;;;;;;5061407;28;19919;-71
2021/01/06 17:33:48;;;;;;;;;;;2.90;99.90;;;;;;5059443;28;19924;-71
2021/01/06 17:36:52;;;;;;;;;;;2.80;99.90;;;;;;5070508;28;19931;-71
2021/01/06 17:39:56;;;;;;;;;;;2.70;99.90;;;;;;5070222;28;19919;-71
2021/01/06 17:43:01;;;;;;;;;;;2.70;99.90;;;;;;5069582;28;20278;-71
2021/01/06 17:46:09;;;;;;;;;;;2.70;99.90;;;;;;5053205;28;19970;-71
2021/01/06 17:49:13;;;;;;;;;;;2.60;99.90;;;;;;5069871;28;19919;-71
2021/01/06 17:52:17;;;;;;;;;;;2.40;99.90;;;;;;5070452;28;20390;-71
2021/01/06 17:55:21;;;;;;;;;;;2.30;99.90;;;;;;5070547;28;20081;-71
2021/01/06 17:58:25;;;;;;;;;;;2.30;99.90;;;;;;5070092;28;19935;-71
2021/01/06 18:01:29;;;;;;;;;;;2.30;99.90;;;;;;5058373;28;19919;-71
2021/01/06 18:04:52;;;;;;;;;;;2.30;99.90;;;;;;5065056;28;19920;-71
2021/01/06 18:08:02;;;;;;;;;;;2.40;99.90;;;;;;5070638;28;19915;-71
2021/01/06 18:11:06;;;;;;;;;;;2.40;99.90;;;;;;5069933;28;20370;-71
2021/01/06 18:14:10;;;;;;;;;;;2.40;99.90;;;;;;5069606;28;19923;-71
2021/01/06 18:17:14;;;;;;;;;;;2.40;99.90;;;;;;5070570;28;19931;-71
2021/01/06 18:20:30;;;;;;;;;;;2.40;99.90;;;;;;5070245;28;19916;-71
2021/01/06 18:23:34;;;;;;;;;;;2.30;99.90;;;;;;5057855;28;19935;-71
2021/01/06 18:26:38;;;;;;;;;;;2.20;99.90;;;;;;5080876;28;20283;-71
2021/01/06 18:29:43;;;;;;;;;;;2.20;99.90;;;;;;5069989;28;19919;-71
2021/01/06 18:32:48;;;;;;;;;;;2.20;99.90;;;;;;5070524;28;19926;-71
2021/01/06 18:36:22;;;;;;;;;;;2.20;99.90;;;;;;5061750;28;19987;-71
2021/01/06 18:39:27;;;;;;;;;;;2.30;99.90;;;;;;5065070;28;20519;-71
2021/01/06 18:42:31;;;;;;;;;;;2.40;99.90;;;;;;5069498;28;19919;-71